Time;durP1;ratioP1;P1;durP2;ratioP2;P2;SDS_P1;SDS_P2;PMS_P1;PMS_P2;Temp;Humidity;BMP_temperature;BMP_pressure;BME280_temperature;BME280_humidity;BME280_pressure;Samples;Min_cycle;Max_cycle;Signal;HPM_P1;HPM_P2
2022/03/27 00:00:15;;;;;;;8.75;5.78;;;18.50;78.10;;;;;;5050916;27;96772;-63
2022/03/27 00:02:46;;;;;;;7.35;5.15;;;18.60;78.10;;;;;;5047695;27;95458;-63
2022/03/27 00:05:17;;;;;;;6.82;5.70;;;18.50;78.10;;;;;;5026273;27;95835;-62
2022/03/27 00:07:48;;;;;;;5.97;5.10;;;18.60;78.00;;;;;;5042536;27;97004;-63
2022/03/27 00:10:19;;;;;;;6.60;5.93;;;18.60;78.00;;;;;;5039793;27;96263;-63
2022/03/27 00:12:50;;;;;;;5.63;5.03;;;18.60;78.00;;;;;;5042861;27;95241;-63
2022/03/27 00:15:22;;;;;;;6.47;5.88;;;18.60;78.00;;;;;;5041168;27;95863;-63
2022/03/27 00:17:52;;;;;;;7.97;6.20;;;18.60;78.00;;;;;;5063526;27;102278;-63
2022/03/27 00:20:23;;;;;;;7.05;6.20;;;18.60;78.00;;;;;;5064565;27;95500;-63
2022/03/27 00:22:56;;;;;;;6.65;5.65;;;18.60;78.00;;;;;;5056324;27;95264;-63
2022/03/27 00:25:26;;;;;;;5.53;4.97;;;18.60;78.00;;;;;;5056161;27;95854;-62
2022/03/27 00:27:56;;;;;;;7.22;5.88;;;18.70;78.10;;;;;;5047926;27;97598;-61
2022/03/27 00:30:27;;;;;;;6.40;5.80;;;18.70;78.00;;;;;;5042574;27;97105;-62
2022/03/27 00:32:57;;;;;;;6.60;5.97;;;18.70;78.00;;;;;;5058795;27;95728;-62
2022/03/27 00:35:27;;;;;;;5.90;5.15;;;18.70;77.90;;;;;;5058348;27;95925;-63
2022/03/27 00:37:58;;;;;;;6.45;5.72;;;18.70;78.10;;;;;;5056908;27;95942;-63
2022/03/27 00:40:29;;;;;;;6.57;5.88;;;18.70;78.00;;;;;;5060520;27;95910;-62
2022/03/27 00:43:00;;;;;;;8.48;5.88;;;18.80;77.90;;;;;;5053484;27;95736;-62
2022/03/27 00:45:30;;;;;;;5.73;5.23;;;18.80;77.90;;;;;;5048806;27;96032;-62
2022/03/27 00:48:01;;;;;;;6.57;5.53;;;18.80;77.90;;;;;;5059681;27;102168;-64
2022/03/27 00:50:33;;;;;;;7.95;5.97;;;18.80;77.80;;;;;;5064954;27;95720;-64
2022/03/27 00:53:03;;;;;;;8.13;5.35;;;18.80;77.80;;;;;;5067529;27;96048;-63
2022/03/27 00:55:36;;;;;;;7.03;5.70;;;18.90;77.70;;;;;;5066915;27;96349;-65
2022/03/27 00:58:08;;;;;;;5.80;5.20;;;18.90;78.30;;;;;;5060670;27;95346;-62
2022/03/27 01:00:48;;;;;;;7.57;6.43;;;18.90;77.70;;;;;;5050565;27;95680;-50
2022/03/27 01:03:24;;;;;;;6.00;5.40;;;19.00;76.30;;;;;;5062558;27;95914;-54
2022/03/27 01:05:59;;;;;;;7.45;5.60;;;19.00;77.60;;;;;;5060358;27;97153;-51
2022/03/27 01:11:22;;;;;;;7.22;5.95;;;19.10;77.70;;;;;;5060876;27;95913;-62
2022/03/27 01:13:59;;;;;;;;;;;19.10;77.50;;;;;;5057989;27;95885;-60
2022/03/27 01:16:42;;;;;;;10.00;6.00;;;19.10;78.00;;;;;;5060151;27;96069;-62
2022/03/27 01:19:16;;;;;;;6.25;5.25;;;19.20;77.50;;;;;;5067282;27;95960;-59
2022/03/27 01:21:47;;;;;;;8.50;5.72;;;19.20;77.30;;;;;;5071923;27;95902;-60
2022/03/27 01:24:19;;;;;;;;;;;19.30;77.30;;;;;;5066824;27;95387;-60
2022/03/27 01:26:50;;;;;;;5.90;5.30;;;19.30;77.20;;;;;;5061141;27;96420;-58
2022/03/27 01:29:21;;;;;;;5.85;5.15;;;19.40;77.10;;;;;;5051525;27;95995;-59
2022/03/27 01:31:53;;;;;;;6.50;5.15;;;19.40;77.10;;;;;;5062840;27;95738;-59
2022/03/27 01:34:23;;;;;;;5.45;4.95;;;19.40;76.90;;;;;;5062815;27;95832;-60
2022/03/27 01:36:54;;;;;;;5.75;5.00;;;19.50;77.00;;;;;;5064528;27;95926;-61
2022/03/27 01:39:26;;;;;;;6.53;4.78;;;19.50;76.80;;;;;;5070671;27;95498;-61
2022/03/27 01:41:57;;;;;;;5.75;5.20;;;19.60;76.80;;;;;;5068732;27;95791;-59
2022/03/27 01:44:28;;;;;;;4.97;4.40;;;19.60;76.70;;;;;;5068659;27;95782;-60
2022/03/27 01:46:59;;;;;;;6.30;4.78;;;19.60;76.60;;;;;;5059134;27;96670;-61
2022/03/27 01:49:30;;;;;;;;;;;19.70;76.60;;;;;;5070355;27;95717;-60
2022/03/27 01:52:00;;;;;;;6.78;5.13;;;19.80;76.50;;;;;;5062008;27;95238;-60
2022/03/27 01:54:30;;;;;;;5.32;4.75;;;19.80;76.40;;;;;;5065475;27;96656;-60
2022/03/27 01:57:02;;;;;;;4.40;4.00;;;19.90;76.40;;;;;;5063825;27;95898;-57
2022/03/27 01:59:35;;;;;;;5.13;4.63;;;19.90;76.30;;;;;;5063664;27;96099;-58
2022/03/27 02:02:05;;;;;;;5.30;4.75;;;20.00;76.20;;;;;;5052363;27;95667;-58
2022/03/27 02:04:37;;;;;;;4.78;4.22;;;20.10;76.20;;;;;;5061168;27;95682;-58
2022/03/27 02:07:08;;;;;;;4.57;3.85;;;20.10;76.10;;;;;;5056550;27;95814;-58
2022/03/27 02:09:42;;;;;;;5.80;5.20;;;20.10;76.00;;;;;;5063329;27;95965;-60
2022/03/27 02:12:13;;;;;;;5.35;4.75;;;20.20;76.00;;;;;;5067531;27;95561;-59
2022/03/27 02:14:45;;;;;;;5.15;4.60;;;20.10;76.40;;;;;;5065007;27;95952;-59
2022/03/27 02:17:16;;;;;;;5.20;4.70;;;20.20;76.90;;;;;;5056390;27;96435;-60
2022/03/27 02:19:46;;;;;;;4.95;4.25;;;20.20;77.20;;;;;;5063988;27;96062;-61
2022/03/27 02:22:16;;;;;;;5.17;4.67;;;20.20;77.50;;;;;;5066532;27;95760;-54
2022/03/27 02:24:48;;;;;;;5.25;4.60;;;20.20;77.70;;;;;;5058827;27;95411;-55
2022/03/27 02:27:19;;;;;;;4.43;4.03;;;20.20;77.40;;;;;;5042694;27;95867;-51
2022/03/27 02:29:50;;;;;;;4.18;3.83;;;20.10;77.30;;;;;;5051890;27;98308;-52
2022/03/27 02:32:21;;;;;;;5.85;4.60;;;20.20;77.30;;;;;;5054057;27;95781;-53
2022/03/27 02:34:51;;;;;;;;;;;20.20;77.00;;;;;;5063445;27;95820;-57
2022/03/27 02:37:21;;;;;;;5.68;4.10;;;20.20;76.80;;;;;;5062125;27;95827;-59
2022/03/27 02:39:52;;;;;;;;;;;20.20;76.60;;;;;;5071588;27;96120;-55
2022/03/27 02:42:26;;;;;;;5.25;3.70;;;20.20;76.60;;;;;;5058284;27;95821;-61
2022/03/27 02:44:58;;;;;;;4.05;3.65;;;20.20;76.40;;;;;;5065177;27;95693;-60
2022/03/27 02:47:29;;;;;;;3.70;3.33;;;20.30;76.30;;;;;;5060229;27;96096;-61
2022/03/27 02:50:00;;;;;;;4.15;3.75;;;20.30;75.90;;;;;;5067915;27;95960;-60
2022/03/27 02:52:31;;;;;;;5.38;3.85;;;20.30;75.70;;;;;;5069326;27;95655;-62
2022/03/27 02:55:01;;;;;;;4.70;3.43;;;20.30;75.50;;;;;;5062373;27;95388;-61
2022/03/27 02:57:31;;;;;;;3.83;3.42;;;20.30;75.10;;;;;;5054597;27;96477;-58
2022/03/27 03:00:05;;;;;;;4.28;3.88;;;20.30;75.00;;;;;;5060330;27;95319;-62
2022/03/27 03:02:36;;;;;;;4.45;4.05;;;20.40;74.80;;;;;;5055466;27;98746;-60
2022/03/27 03:05:09;;;;;;;4.45;4.05;;;20.40;74.30;;;;;;5059340;27;95740;-61
2022/03/27 03:07:43;;;;;;;3.47;3.13;;;20.40;74.40;;;;;;5068936;27;95854;-61
2022/03/27 03:10:16;;;;;;;;;;;20.40;74.20;;;;;;5069673;27;96057;-61
2022/03/27 03:12:49;;;;;;;3.38;3.08;;;20.40;74.40;;;;;;5070349;27;95690;-61
2022/03/27 03:15:22;;;;;;;4.35;2.92;;;20.50;74.40;;;;;;5056126;27;95700;-60
2022/03/27 03:17:53;;;;;;;4.15;3.72;;;20.50;74.00;;;;;;5063815;27;95878;-59
2022/03/27 03:20:24;;;;;;;5.05;3.58;;;20.50;74.00;;;;;;5068427;27;96261;-61
2022/03/27 03:22:56;;;;;;;3.10;2.90;;;20.60;74.10;;;;;;5064993;27;95800;-60
2022/03/27 03:25:25;;;;;;;;;;;20.60;73.30;;;;;;5065399;27;95702;-59
2022/03/27 03:27:56;;;;;;;4.18;3.33;;;20.60;73.60;;;;;;5056553;27;95918;-61
2022/03/27 03:30:27;;;;;;;3.55;3.15;;;20.60;73.80;;;;;;5051076;27;95392;-60
2022/03/27 03:32:58;;;;;;;3.70;3.35;;;20.60;73.70;;;;;;5022499;27;95885;-57
2022/03/27 03:35:29;;;;;;;4.03;3.35;;;20.60;73.30;;;;;;5037247;27;95479;-62
2022/03/27 03:38:11;;;;;;;3.08;2.83;;;20.70;73.30;;;;;;5028495;27;95953;-57
2022/03/27 03:40:41;;;;;;;3.45;3.15;;;20.70;73.20;;;;;;5048980;27;95578;-61
2022/03/27 03:43:13;;;;;;;3.38;3.10;;;20.80;72.90;;;;;;5033458;27;95272;-59
2022/03/27 03:45:43;;;;;;;4.32;2.88;;;20.80;72.90;;;;;;5022185;27;95739;-58
2022/03/27 03:48:15;;;;;;;2.92;2.70;;;20.80;72.10;;;;;;5033734;27;96006;-57
2022/03/27 03:50:46;;;;;;;3.80;3.50;;;20.80;72.70;;;;;;5033324;27;95691;-59
2022/03/27 03:53:17;;;;;;;;;;;20.90;72.90;;;;;;5028176;27;95843;-61
2022/03/27 03:55:48;;;;;;;3.40;3.08;;;20.90;73.30;;;;;;5029548;27;95957;-62
2022/03/27 03:58:20;;;;;;;3.00;2.70;;;20.90;73.10;;;;;;5032789;27;95944;-62
2022/03/27 04:00:52;;;;;;;3.00;2.80;;;20.90;73.30;;;;;;5032162;27;95615;-61
2022/03/27 04:03:23;;;;;;;3.30;3.00;;;21.00;73.30;;;;;;5043624;27;95741;-62
2022/03/27 04:05:53;;;;;;;4.60;3.03;;;20.90;73.20;;;;;;5047654;27;95757;-63
2022/03/27 04:08:23;;;;;;;3.13;2.83;;;21.00;73.50;;;;;;5066409;27;95852;-61
2022/03/27 04:10:55;;;;;;;2.85;2.65;;;21.00;73.50;;;;;;5067138;27;95587;-62
2022/03/27 04:13:28;;;;;;;3.15;2.40;;;21.10;73.60;;;;;;5066850;27;95856;-62
2022/03/27 04:16:01;;;;;;;2.67;2.47;;;21.10;73.50;;;;;;5061143;27;96008;-61
2022/03/27 04:18:32;;;;;;;3.63;3.10;;;21.10;73.60;;;;;;5068137;27;95909;-61
2022/03/27 04:21:02;;;;;;;3.45;2.90;;;21.10;73.50;;;;;;5063579;27;97363;-60
2022/03/27 04:23:34;;;;;;;3.28;2.97;;;21.10;73.50;;;;;;5069274;27;95977;-62
2022/03/27 04:26:05;;;;;;;2.78;2.58;;;21.20;72.40;;;;;;5068358;27;95711;-60
2022/03/27 04:28:37;;;;;;;2.80;2.60;;;21.20;73.50;;;;;;5046824;27;95976;-60
2022/03/27 04:31:09;;;;;;;3.17;2.88;;;21.20;73.40;;;;;;5023875;27;98309;-62
2022/03/27 04:33:40;;;;;;;3.20;2.92;;;21.20;73.50;;;;;;5047458;27;95944;-63
2022/03/27 04:36:11;;;;;;;;;;;21.30;73.60;;;;;;5049001;27;95226;-63
2022/03/27 04:38:42;;;;;;;2.95;2.72;;;21.30;73.40;;;;;;5049095;27;95797;-59
2022/03/27 04:41:13;;;;;;;2.70;2.50;;;21.30;73.70;;;;;;5026658;28;95460;-63
2022/03/27 04:43:47;;;;;;;2.88;2.65;;;21.40;73.50;;;;;;5046325;27;96220;-63
2022/03/27 04:46:18;;;;;;;3.22;2.92;;;21.40;73.60;;;;;;5025092;27;96011;-60
2022/03/27 04:48:49;;;;;;;2.70;2.50;;;21.40;73.50;;;;;;5047642;27;95971;-59
2022/03/27 04:51:19;;;;;;;3.33;3.00;;;21.40;73.50;;;;;;5043762;27;95781;-62
2022/03/27 04:53:50;;;;;;;2.80;2.60;;;21.40;73.40;;;;;;5050758;27;95744;-60
2022/03/27 04:56:21;;;;;;;2.63;2.40;;;21.50;73.50;;;;;;5030898;27;95631;-61
2022/03/27 04:58:52;;;;;;;2.60;2.40;;;21.50;73.40;;;;;;5045677;27;96069;-61
2022/03/27 05:01:26;;;;;;;3.08;2.65;;;21.60;73.10;;;;;;5016517;27;95901;-60
2022/03/27 05:03:57;;;;;;;3.38;2.25;;;21.70;72.90;;;;;;5052025;27;95997;-61
2022/03/27 05:06:29;;;;;;;5.68;2.28;;;21.80;72.60;;;;;;5047885;27;95767;-59
2022/03/27 05:09:01;;;;;;;2.55;2.35;;;21.90;72.30;;;;;;5045264;27;95865;-60
2022/03/27 05:11:31;;;;;;;;;;;21.90;72.00;;;;;;5044850;27;95908;-59
2022/03/27 05:14:04;;;;;;;2.67;2.47;;;22.00;71.90;;;;;;5051801;27;95749;-61
2022/03/27 05:16:36;;;;;;;2.50;2.30;;;22.00;71.60;;;;;;5032225;27;95403;-63
2022/03/27 05:19:07;;;;;;;2.13;1.92;;;22.00;71.50;;;;;;5021892;27;95967;-61
2022/03/27 05:21:39;;;;;;;3.20;2.42;;;22.10;71.40;;;;;;5031387;27;95895;-60
2022/03/27 05:24:10;;;;;;;2.40;2.20;;;22.10;71.20;;;;;;5035958;27;95599;-61
2022/03/27 05:26:41;;;;;;;2.55;2.45;;;22.20;71.10;;;;;;5047652;27;95861;-61
2022/03/27 05:29:13;;;;;;;3.08;2.83;;;22.20;71.10;;;;;;5037761;27;96028;-62
2022/03/27 05:31:45;;;;;;;2.80;2.60;;;22.20;71.10;;;;;;5050497;27;95650;-61
2022/03/27 05:34:16;;;;;;;2.75;2.38;;;22.20;71.00;;;;;;5066188;27;97639;-60
2022/03/27 05:36:48;;;;;;;2.70;2.50;;;22.30;71.10;;;;;;5065242;27;95963;-59
2022/03/27 05:39:19;;;;;;;3.03;2.80;;;22.40;70.90;;;;;;5063085;27;96160;-60
2022/03/27 05:41:51;;;;;;;2.70;2.50;;;22.40;70.90;;;;;;5059488;27;95936;-58
2022/03/27 05:44:22;;;;;;;2.58;2.38;;;22.40;69.60;;;;;;5055696;27;95891;-58
2022/03/27 05:46:53;;;;;;;4.75;2.47;;;22.40;70.70;;;;;;5044696;27;95705;-62
2022/03/27 05:49:24;;;;;;;2.55;2.38;;;22.50;70.60;;;;;;5042890;27;96063;-61
2022/03/27 05:51:55;;;;;;;2.85;2.40;;;22.50;70.60;;;;;;5026837;27;96026;-61
2022/03/27 05:54:25;;;;;;;2.75;2.20;;;22.60;70.50;;;;;;5045807;27;95876;-58
2022/03/27 05:56:59;;;;;;;2.65;2.45;;;22.60;70.50;;;;;;5041831;27;95454;-59
2022/03/27 05:59:29;;;;;;;;;;;22.60;70.40;;;;;;5038597;27;95868;-62
2022/03/27 06:02:00;;;;;;;2.45;2.25;;;22.60;70.30;;;;;;5028586;27;95719;-60
2022/03/27 06:04:32;;;;;;;2.58;2.33;;;22.70;70.30;;;;;;5031421;27;95216;-59
2022/03/27 06:07:02;;;;;;;2.50;2.30;;;22.70;70.20;;;;;;5037944;27;95838;-60
2022/03/27 06:09:33;;;;;;;3.25;2.95;;;22.70;70.20;;;;;;5027362;27;98492;-60
2022/03/27 06:12:06;;;;;;;3.15;2.45;;;22.80;70.10;;;;;;5032459;27;96434;-60
2022/03/27 06:14:41;;;;;;;2.95;2.50;;;22.80;70.00;;;;;;5036445;27;98419;-58
2022/03/27 06:17:12;;;;;;;2.67;2.47;;;22.80;70.00;;;;;;5028762;27;96218;-60
2022/03/27 06:19:43;;;;;;;2.33;2.13;;;22.80;70.00;;;;;;5029457;27;96018;-60
2022/03/27 06:22:14;;;;;;;2.83;2.63;;;22.90;69.90;;;;;;5035620;27;96084;-58
2022/03/27 06:24:46;;;;;;;2.83;2.60;;;22.90;69.80;;;;;;5032191;27;95774;-59
2022/03/27 06:27:17;;;;;;;3.30;2.83;;;22.90;69.90;;;;;;5032511;27;95724;-57
2022/03/27 06:29:48;;;;;;;;;;;22.90;69.90;;;;;;5030000;27;95923;-60
2022/03/27 06:32:20;;;;;;;2.90;2.67;;;22.90;69.80;;;;;;5021858;27;95705;-61
2022/03/27 06:34:51;;;;;;;3.45;3.15;;;22.90;69.70;;;;;;5035752;27;95705;-60
2022/03/27 06:37:22;;;;;;;3.28;2.97;;;23.00;69.60;;;;;;5035195;27;97352;-61
2022/03/27 06:39:54;;;;;;;3.75;3.40;;;22.90;68.80;;;;;;5039161;27;96013;-60
2022/03/27 06:42:28;;;;;;;3.10;2.80;;;22.90;68.70;;;;;;5041983;27;95946;-62
2022/03/27 06:45:00;;;;;;;3.58;3.28;;;22.80;68.50;;;;;;5038035;27;95788;-62
2022/03/27 06:47:35;;;;;;;3.05;2.85;;;22.80;68.30;;;;;;5040622;27;95888;-60
2022/03/27 06:50:07;;;;;;;5.60;3.22;;;22.80;68.20;;;;;;5033876;27;96156;-61
2022/03/27 06:52:38;;;;;;;3.45;3.17;;;22.80;66.50;;;;;;5045216;27;95520;-62
2022/03/27 06:55:09;;;;;;;4.20;3.85;;;22.70;67.60;;;;;;5033574;27;96002;-60
2022/03/27 06:57:40;;;;;;;4.13;3.72;;;22.70;66.30;;;;;;5032901;27;95763;-62
2022/03/27 07:03:09;;;;;;;3.83;3.53;;;22.60;64.80;;;;;;5066606;27;101805;-58
2022/03/27 07:05:45;;;;;;;3.90;3.60;;;22.60;64.40;;;;;;5069310;27;95923;-61
2022/03/27 07:08:19;;;;;;;4.43;4.00;;;22.60;63.90;;;;;;5065673;27;95680;-58
2022/03/27 07:10:52;;;;;;;3.45;3.15;;;22.60;63.20;;;;;;5060523;27;96076;-58
2022/03/27 07:13:23;;;;;;;4.18;3.55;;;22.50;62.40;;;;;;5066310;27;95891;-56
2022/03/27 07:15:55;;;;;;;4.45;4.00;;;22.50;62.30;;;;;;5032984;27;95404;-56
2022/03/27 07:18:26;;;;;;;10.05;3.97;;;22.40;62.00;;;;;;5042500;27;95777;-61
2022/03/27 07:20:57;;;;;;;4.97;4.47;;;22.40;61.80;;;;;;5017715;27;97522;-58
2022/03/27 07:23:29;;;;;;;4.65;4.25;;;22.40;61.40;;;;;;5032480;27;96803;-62
2022/03/27 07:26:00;;;;;;;4.68;4.20;;;22.40;61.50;;;;;;5046505;27;95257;-62
2022/03/27 07:28:32;;;;;;;6.05;4.68;;;22.40;61.60;;;;;;5035307;27;96000;-62
2022/03/27 07:31:03;;;;;;;4.40;4.00;;;22.40;61.70;;;;;;5034739;27;96607;-58
2022/03/27 07:33:33;;;;;;;5.45;4.93;;;22.40;61.70;;;;;;5032282;27;95940;-55
2022/03/27 07:36:05;;;;;;;4.13;3.75;;;22.40;61.50;;;;;;5036544;27;95603;-58
2022/03/27 07:38:37;;;;;;;4.97;4.22;;;22.40;61.60;;;;;;5034309;27;95649;-62
2022/03/27 07:41:08;;;;;;;5.47;4.97;;;22.40;61.60;;;;;;5037462;27;95904;-59
2022/03/27 07:43:39;;;;;;;4.88;4.30;;;22.40;61.60;;;;;;5033881;27;95724;-59
2022/03/27 07:46:09;;;;;;;4.50;4.10;;;22.30;61.40;;;;;;5020575;27;95721;-58
2022/03/27 07:48:40;;;;;;;5.03;4.53;;;22.30;61.40;;;;;;5039912;27;95839;-57
2022/03/27 07:51:11;;;;;;;5.47;4.93;;;22.30;61.40;;;;;;5029991;27;96088;-57
2022/03/27 07:53:40;;;;;;;5.00;4.60;;;22.30;61.30;;;;;;5034774;27;95955;-57
2022/03/27 07:56:11;;;;;;;4.88;4.47;;;22.30;61.30;;;;;;5038158;27;95511;-60
2022/03/27 07:58:48;;;;;;;4.82;4.43;;;22.30;61.30;;;;;;5037155;27;95790;-56
2022/03/27 08:01:23;;;;;;;5.47;4.97;;;22.30;61.90;;;;;;5026901;27;97959;-57
2022/03/27 08:03:56;;;;;;;6.68;5.15;;;22.30;62.70;;;;;;5038911;27;95900;-61
2022/03/27 08:06:27;;;;;;;5.65;4.88;;;22.30;63.10;;;;;;5039847;27;95426;-57
2022/03/27 08:09:00;;;;;;;5.25;4.75;;;22.30;63.50;;;;;;5046209;27;95392;-57
2022/03/27 08:11:31;;;;;;;5.55;5.05;;;22.30;64.20;;;;;;5029034;27;95801;-61
2022/03/27 08:14:03;;;;;;;6.07;5.47;;;22.30;64.70;;;;;;5033999;27;96490;-57
2022/03/27 08:16:38;;;;;;;5.13;4.65;;;22.30;65.30;;;;;;5039218;27;95783;-61
2022/03/27 08:19:09;;;;;;;6.18;5.30;;;22.30;65.00;;;;;;5040942;27;95830;-60
2022/03/27 08:21:40;;;;;;;5.43;4.93;;;22.40;65.10;;;;;;5046125;27;95974;-57
2022/03/27 08:24:11;;;;;;;6.00;5.40;;;22.50;65.20;;;;;;5060740;27;95911;-62
2022/03/27 08:26:59;;;;;;;5.40;4.83;;;22.50;65.20;;;;;;5065203;27;95978;-61
2022/03/27 08:29:33;;;;;;;6.22;5.63;;;22.50;65.20;;;;;;5056241;27;95832;-55
2022/03/27 08:32:09;;;;;;;6.53;5.82;;;22.50;65.20;;;;;;5064662;27;96009;-55
2022/03/27 08:34:42;;;;;;;5.63;5.10;;;22.50;65.30;;;;;;5071743;27;96605;-56
2022/03/27 08:37:14;;;;;;;5.25;4.75;;;22.60;65.40;;;;;;5070923;27;96021;-60
2022/03/27 08:39:47;;;;;;;5.82;5.28;;;22.60;65.60;;;;;;5070521;27;95775;-61
2022/03/27 08:42:21;;;;;;;5.70;5.20;;;22.60;65.60;;;;;;5068989;27;95975;-59
2022/03/27 08:44:53;;;;;;;5.35;4.85;;;22.60;65.70;;;;;;5066347;27;95744;-63
2022/03/27 08:47:28;;;;;;;7.25;5.07;;;22.50;65.70;;;;;;5063316;27;95521;-58
2022/03/27 08:50:26;;;;;;;6.03;4.85;;;22.60;65.90;;;;;;5070378;27;95609;-65
2022/03/27 08:52:58;;;;;;;6.15;5.25;;;22.60;65.90;;;;;;5066811;27;96754;-66
2022/03/27 08:55:52;;;;;;;6.18;5.65;;;22.60;66.00;;;;;;5050961;27;95825;-59
2022/03/27 08:58:38;;;;;;;5.57;5.00;;;22.60;66.10;;;;;;5039779;27;95779;-62
2022/03/27 09:01:10;;;;;;;5.07;4.57;;;22.60;66.20;;;;;;5060945;27;95648;-55
2022/03/27 09:03:46;;;;;;;6.10;5.50;;;22.60;66.30;;;;;;5069733;27;95908;-61
2022/03/27 09:06:16;;;;;;;5.05;4.55;;;22.60;66.30;;;;;;5069117;27;96001;-55
2022/03/27 09:08:51;;;;;;;5.32;4.82;;;22.60;66.40;;;;;;5071807;27;95557;-59
2022/03/27 09:11:25;;;;;;;5.22;4.72;;;22.60;66.50;;;;;;5065848;27;95553;-61
2022/03/27 09:13:57;;;;;;;4.97;4.50;;;22.60;66.60;;;;;;5066107;27;95840;-57
2022/03/27 09:16:29;;;;;;;5.38;4.90;;;22.60;66.60;;;;;;5023362;27;97041;-57
2022/03/27 09:19:01;;;;;;;6.10;5.53;;;22.60;65.40;;;;;;5054783;27;95596;-56
2022/03/27 09:21:33;;;;;;;7.07;5.30;;;22.50;66.70;;;;;;5062051;27;95724;-61
2022/03/27 09:24:04;;;;;;;5.75;5.25;;;22.50;66.70;;;;;;5063050;27;95907;-61
2022/03/27 09:26:36;;;;;;;4.72;4.22;;;22.50;66.80;;;;;;5060274;27;95877;-56
2022/03/27 09:29:11;;;;;;;5.78;4.80;;;22.50;66.80;;;;;;5049242;27;96077;-56
2022/03/27 09:31:45;;;;;;;5.05;4.57;;;22.50;66.80;;;;;;5051907;27;99116;-61
2022/03/27 09:34:19;;;;;;;5.57;5.07;;;22.50;67.00;;;;;;5061186;27;95937;-55
2022/03/27 09:36:51;;;;;;;5.47;4.97;;;22.50;67.00;;;;;;5063022;27;97979;-61
2022/03/27 09:39:24;;;;;;;5.32;4.82;;;22.50;67.10;;;;;;5061403;27;96156;-56
2022/03/27 09:42:02;;;;;;;5.05;4.53;;;22.50;67.20;;;;;;5059660;27;95766;-61
2022/03/27 09:44:38;;;;;;;5.43;4.93;;;22.50;67.20;;;;;;5068001;27;95886;-57
2022/03/27 09:47:10;;;;;;;5.32;4.82;;;22.50;67.20;;;;;;5052382;27;95903;-55
2022/03/27 09:49:44;;;;;;;5.20;4.70;;;22.50;67.20;;;;;;5060651;27;96086;-56
2022/03/27 09:52:16;;;;;;;5.45;4.97;;;22.50;67.30;;;;;;5073096;27;95906;-57
2022/03/27 09:54:49;;;;;;;5.55;4.88;;;22.50;67.40;;;;;;5062995;27;95878;-54
2022/03/27 09:57:27;;;;;;;5.97;5.40;;;22.50;67.50;;;;;;5044051;27;95838;-59
2022/03/27 10:00:19;;;;;;;5.85;5.28;;;22.40;67.40;;;;;;5065985;27;96767;-54
2022/03/27 10:02:54;;;;;;;5.75;5.15;;;22.40;67.50;;;;;;5043819;27;95773;-57
2022/03/27 10:05:32;;;;;;;6.22;5.63;;;22.40;67.40;;;;;;5038457;27;96071;-57
2022/03/27 10:08:04;;;;;;;7.03;5.60;;;22.40;67.40;;;;;;5039082;27;97923;-52
2022/03/27 10:10:35;;;;;;;6.93;6.10;;;22.40;67.40;;;;;;5040647;27;95668;-58
2022/03/27 10:13:10;;;;;;;6.28;5.68;;;22.40;67.50;;;;;;5045947;27;95727;-57
2022/03/27 10:15:42;;;;;;;6.93;6.25;;;22.40;67.50;;;;;;5037189;27;95914;-55
2022/03/27 10:18:20;;;;;;;6.82;6.07;;;22.40;67.50;;;;;;5042713;27;96257;-57
2022/03/27 10:20:58;;;;;;;6.78;5.65;;;22.40;67.60;;;;;;5036557;27;95326;-56
2022/03/27 10:23:31;;;;;;;7.75;6.35;;;22.40;67.60;;;;;;5037114;27;95919;-55
2022/03/27 10:26:05;;;;;;;6.72;5.72;;;22.30;67.60;;;;;;5033882;27;96077;-56
2022/03/27 10:28:39;;;;;;;7.10;6.40;;;22.30;67.70;;;;;;5024601;27;95981;-55
2022/03/27 10:31:11;;;;;;;7.82;5.82;;;22.30;67.70;;;;;;5012026;27;95820;-57
2022/03/27 10:33:40;;;;;;;;;;;22.30;67.70;;;;;;5027310;27;95877;-55
2022/03/27 10:36:17;;;;;;;6.90;6.28;;;22.30;67.80;;;;;;5026740;27;95892;-55
2022/03/27 10:39:00;;;;;;;6.90;6.10;;;22.30;67.90;;;;;;5030839;27;95963;-56
2022/03/27 10:41:48;;;;;;;8.18;6.80;;;22.30;67.90;;;;;;5030010;27;96996;-56
2022/03/27 10:44:44;;;;;;;7.40;6.70;;;22.30;67.90;;;;;;5029249;27;95607;-55
2022/03/27 10:47:20;;;;;;;6.35;5.75;;;22.30;67.90;;;;;;5023139;27;95843;-57
2022/03/27 10:50:08;;;;;;;8.05;7.05;;;22.30;68.00;;;;;;5027878;27;95949;-58
2022/03/27 10:52:45;;;;;;;6.18;5.57;;;22.30;68.10;;;;;;5032266;27;95911;-56
2022/03/27 10:55:16;;;;;;;8.32;7.53;;;22.20;68.00;;;;;;5030086;27;96241;-60
2022/03/27 10:57:50;;;;;;;8.38;6.88;;;22.20;68.10;;;;;;5030272;27;96035;-59
2022/03/27 11:00:43;;;;;;;8.10;6.60;;;22.20;68.10;;;;;;5020830;27;95857;-56
2022/03/27 11:03:43;;;;;;;8.48;7.25;;;22.20;68.10;;;;;;5028747;27;95757;-56
2022/03/27 11:06:21;;;;;;;8.02;6.93;;;22.20;68.10;;;;;;5031959;27;95809;-60
2022/03/27 11:08:54;;;;;;;13.48;8.27;;;22.20;68.10;;;;;;5033338;27;95894;-58
2022/03/27 11:11:39;;;;;;;8.13;7.32;;;22.20;68.20;;;;;;5026237;27;95866;-59
2022/03/27 11:14:10;;;;;;;7.88;7.18;;;22.20;68.20;;;;;;5017510;27;96033;-59
2022/03/27 11:17:06;;;;;;;8.27;7.32;;;22.20;68.30;;;;;;5009353;27;98437;-59
2022/03/27 11:19:51;;;;;;;9.32;7.70;;;22.10;68.20;;;;;;5032607;27;98060;-59
2022/03/27 11:22:44;;;;;;;8.25;6.95;;;22.10;68.30;;;;;;5037348;27;98093;-59
2022/03/27 11:25:41;;;;;;;18.58;12.25;;;22.10;68.30;;;;;;5030545;27;95933;-60
2022/03/27 11:28:20;;;;;;;14.13;9.73;;;22.10;67.50;;;;;;5036285;27;95903;-61
2022/03/27 11:30:51;;;;;;;12.93;10.07;;;22.00;67.90;;;;;;5033976;27;95948;-61
2022/03/27 11:33:24;;;;;;;11.93;10.70;;;22.00;68.00;;;;;;5031685;27;96386;-61
2022/03/27 11:36:11;;;;;;;11.27;10.07;;;22.00;68.10;;;;;;5030956;27;95191;-61
2022/03/27 11:39:02;;;;;;;10.85;9.73;;;22.00;68.20;;;;;;5029487;27;96024;-61
2022/03/27 11:41:43;;;;;;;10.52;9.40;;;22.00;68.20;;;;;;5028537;27;96406;-61
2022/03/27 11:47:35;;;;;;;10.18;9.27;;;22.00;68.30;;;;;;5028020;27;98561;-61
2022/03/27 11:50:08;;;;;;;11.82;9.82;;;22.00;68.30;;;;;;5054429;27;95909;-60
2022/03/27 11:52:48;;;;;;;12.93;9.77;;;22.00;68.40;;;;;;5033462;27;96402;-58
2022/03/27 11:55:19;;;;;;;9.93;8.80;;;22.00;68.50;;;;;;5049702;27;95726;-61
2022/03/27 11:57:53;;;;;;;9.93;8.80;;;22.00;68.50;;;;;;5038178;27;95577;-58
2022/03/27 12:00:41;;;;;;;9.68;8.77;;;21.90;68.60;;;;;;5019278;27;96062;-62
2022/03/27 12:03:22;;;;;;;9.73;8.68;;;21.90;68.60;;;;;;5045738;27;96172;-61
2022/03/27 12:05:54;;;;;;;11.30;9.35;;;21.90;68.60;;;;;;5034649;27;95615;-58
2022/03/27 12:08:48;;;;;;;11.05;9.98;;;21.90;68.70;;;;;;5032509;27;95232;-58
2022/03/27 12:11:27;;;;;;;10.18;9.18;;;21.90;67.50;;;;;;5030783;27;96173;-61
2022/03/27 12:14:15;;;;;;;10.02;9.13;;;21.80;68.70;;;;;;5031890;27;96531;-61
2022/03/27 12:16:53;;;;;;;11.90;9.55;;;21.80;68.80;;;;;;5020281;27;95755;-61
2022/03/27 12:19:27;;;;;;;9.13;8.23;;;21.80;68.90;;;;;;5015561;27;95710;-61
2022/03/27 12:22:01;;;;;;;10.23;9.25;;;21.80;68.90;;;;;;5011092;27;96189;-60
2022/03/27 12:24:45;;;;;;;9.52;8.55;;;21.80;69.00;;;;;;5031600;27;96554;-61
2022/03/27 12:30:17;;;;;;;10.13;9.18;;;21.80;69.00;;;;;;5027598;27;95939;-59
2022/03/27 12:32:48;;;;;;;9.77;8.38;;;21.70;69.10;;;;;;5063583;27;96017;-57
2022/03/27 12:35:22;;;;;;;10.53;9.53;;;21.70;69.10;;;;;;5059177;27;95835;-60
2022/03/27 12:37:54;;;;;;;9.23;8.43;;;21.70;69.30;;;;;;5057469;27;95462;-61
2022/03/27 12:40:28;;;;;;;9.43;8.48;;;21.70;69.20;;;;;;5057790;27;95279;-57
2022/03/27 12:43:16;;;;;;;9.07;8.10;;;21.60;69.20;;;;;;5052556;27;95699;-61
2022/03/27 12:45:51;;;;;;;9.55;8.75;;;21.70;69.30;;;;;;5046448;27;95877;-62
2022/03/27 12:48:27;;;;;;;9.68;8.63;;;21.60;69.30;;;;;;5055664;27;95889;-57
2022/03/27 12:51:00;;;;;;;10.75;9.63;;;21.60;69.30;;;;;;5045888;27;96303;-61
2022/03/27 12:53:31;;;;;;;10.27;9.27;;;21.60;69.30;;;;;;5045984;27;96033;-60
2022/03/27 12:56:13;;;;;;;10.15;9.18;;;21.60;69.00;;;;;;5052942;27;95918;-61
2022/03/27 12:58:45;;;;;;;9.60;8.60;;;21.60;69.40;;;;;;5058363;27;95979;-59
2022/03/27 13:01:19;;;;;;;9.75;8.95;;;21.60;69.40;;;;;;5051408;27;95597;-60
2022/03/27 13:04:10;;;;;;;9.75;8.75;;;21.60;69.40;;;;;;5058307;27;95672;-61
2022/03/27 13:06:45;;;;;;;9.75;8.85;;;21.50;69.40;;;;;;5026567;27;96310;-61
2022/03/27 13:09:23;;;;;;;10.07;9.07;;;21.50;69.60;;;;;;5054561;27;95434;-65
2022/03/27 13:11:54;;;;;;;10.93;9.88;;;21.50;69.50;;;;;;5053805;27;95760;-60
2022/03/27 13:14:27;;;;;;;10.13;9.18;;;21.50;69.50;;;;;;5046989;27;95779;-62
2022/03/27 13:16:59;;;;;;;9.88;8.90;;;21.50;69.50;;;;;;5047357;27;95818;-62
2022/03/27 13:19:45;;;;;;;11.38;8.85;;;21.50;69.60;;;;;;5058958;27;96107;-62
2022/03/27 13:22:18;;;;;;;10.38;9.38;;;21.50;69.60;;;;;;5046658;27;95779;-61
2022/03/27 13:24:53;;;;;;;10.48;9.52;;;21.50;69.70;;;;;;5057786;27;95527;-61
2022/03/27 13:27:28;;;;;;;11.38;10.18;;;21.40;69.70;;;;;;5054086;27;95826;-61
2022/03/27 13:30:00;;;;;;;9.90;9.02;;;21.40;69.70;;;;;;5051742;27;95721;-62
2022/03/27 13:32:31;;;;;;;10.98;9.98;;;21.40;69.70;;;;;;5056510;27;95888;-62